createdAt,value
2023-02-24T00:01:52.625Z,11.99
2023-02-24T00:04:21.261Z,11.85
2023-02-24T00:06:49.242Z,11.87
2023-02-24T00:09:20.126Z,11.82
2023-02-24T00:11:49.230Z,11.83
2023-02-24T00:14:17.104Z,11.90
2023-02-24T00:16:45.313Z,11.83
2023-02-24T00:19:18.115Z,11.77
2023-02-24T00:21:46.608Z,11.67
2023-02-24T00:24:15.110Z,11.75
2023-02-24T00:26:42.965Z,11.74
2023-02-24T00:29:12.522Z,11.75
2023-02-24T00:31:42.972Z,11.51
2023-02-24T00:34:12.874Z,11.59
2023-02-24T00:36:40.686Z,11.56
2023-02-24T00:39:09.759Z,11.45
2023-02-24T00:41:43.679Z,11.09
2023-02-24T00:44:14.152Z,11.38
2023-02-24T00:46:44.814Z,11.41
2023-02-24T00:49:17.237Z,11.43
2023-02-24T00:51:46.824Z,11.39
2023-02-24T00:54:16.908Z,11.65
2023-02-24T00:56:46.212Z,11.40
2023-02-24T00:59:18.689Z,11.46
2023-02-24T01:01:46.553Z,11.54
2023-02-24T01:04:15.754Z,11.33
2023-02-24T01:07:00.141Z,11.72
2023-02-24T01:09:30.465Z,11.69
2023-02-24T01:12:17.120Z,11.62
2023-02-24T01:14:47.848Z,11.33
2023-02-24T01:17:16.841Z,11.44
2023-02-24T01:19:45.833Z,10.90
2023-02-24T01:22:15.111Z,11.06
2023-02-24T01:24:44.602Z,11.00
2023-02-24T01:27:13.584Z,11.27
2023-02-24T01:29:41.293Z,11.24
2023-02-24T01:32:14.879Z,11.21
2023-02-24T01:34:43.100Z,11.19
2023-02-24T01:37:10.928Z,11.44
2023-02-24T01:39:38.670Z,11.55
2023-02-24T01:42:06.925Z,11.58
2023-02-24T01:44:34.511Z,11.60
2023-02-24T01:47:02.011Z,11.32
2023-02-24T01:49:36.995Z,11.17
2023-02-24T01:52:09.177Z,11.34
2023-02-24T01:54:43.114Z,11.34
2023-02-24T01:57:16.656Z,11.48
2023-02-24T01:59:47.279Z,11.76
2023-02-24T02:02:15.631Z,11.67
2023-02-24T02:04:47.011Z,11.44
2023-02-24T02:07:17.167Z,11.47
2023-02-24T02:09:46.809Z,11.37
2023-02-24T02:12:14.652Z,11.47
2023-02-24T02:14:48.014Z,11.29
2023-02-24T02:17:26.658Z,11.21
2023-02-24T02:20:15.858Z,11.08
2023-02-24T02:23:07.695Z,11.18
2023-02-24T02:25:56.456Z,11.07
2023-02-24T02:28:47.696Z,11.23
2023-02-24T02:31:33.983Z,11.17
2023-02-24T02:34:22.599Z,11.32
2023-02-24T02:37:16.337Z,10.94
2023-02-24T02:40:19.961Z,11.12
2023-02-24T02:42:54.119Z,11.31
2023-02-24T02:45:25.967Z,11.05
2023-02-24T02:47:59.715Z,11.22
2023-02-24T02:50:39.069Z,11.40
2023-02-24T02:53:16.213Z,11.37
2023-02-24T02:55:45.958Z,11.36
2023-02-24T02:58:16.655Z,11.11
2023-02-24T03:01:01.744Z,11.16
2023-02-24T03:03:33.108Z,11.54
2023-02-24T03:06:06.984Z,11.18
2023-02-24T03:08:38.274Z,11.49
2023-02-24T03:11:11.006Z,11.17
2023-02-24T03:13:41.797Z,11.22
2023-02-24T03:16:10.952Z,11.15
2023-02-24T03:18:41.463Z,11.10
2023-02-24T03:21:13.731Z,10.90
2023-02-24T03:23:46.140Z,11.21
2023-02-24T03:26:21.316Z,10.97
2023-02-24T03:28:59.258Z,11.18
2023-02-24T03:31:51.120Z,10.86
2023-02-24T03:34:24.320Z,10.84
2023-02-24T03:36:54.646Z,10.88
2023-02-24T03:39:23.660Z,10.88
2023-02-24T03:42:01.554Z,11.17
2023-02-24T03:44:30.096Z,11.25
2023-02-24T03:46:57.550Z,11.15
2023-02-24T03:49:25.579Z,11.03
2023-02-24T03:52:32.653Z,10.98
2023-02-24T03:55:24.909Z,11.00
2023-02-24T03:58:12.847Z,11.23
2023-02-24T04:00:57.842Z,11.47
2023-02-24T04:03:32.974Z,11.25
2023-02-24T04:06:28.021Z,11.21
2023-02-24T04:09:26.090Z,11.31
2023-02-24T04:12:09.897Z,11.11
2023-02-24T04:15:11.877Z,10.75
2023-02-24T04:17:46.361Z,10.76
2023-02-24T04:20:16.729Z,10.78
2023-02-24T04:22:49.719Z,10.72
2023-02-24T04:25:20.127Z,10.79
2023-02-24T04:27:48.063Z,10.84
2023-02-24T04:30:15.688Z,10.77
2023-02-24T04:32:44.409Z,10.75
2023-02-24T04:35:15.506Z,10.67
2023-02-24T04:37:46.460Z,10.60
2023-02-24T04:40:22.167Z,10.66
2023-02-24T04:42:52.027Z,11.01
2023-02-24T04:45:28.229Z,10.93
2023-02-24T04:48:01.037Z,11.19
2023-02-24T04:50:35.343Z,11.03
2023-02-24T04:53:09.574Z,10.74
2023-02-24T04:55:40.421Z,10.92
2023-02-24T04:58:12.795Z,11.12
2023-02-24T05:00:42.259Z,10.77
2023-02-24T05:03:11.914Z,10.94
2023-02-24T05:05:39.684Z,11.15
2023-02-24T05:08:09.424Z,11.16
2023-02-24T05:10:43.972Z,10.81
2023-02-24T05:13:27.780Z,10.93
2023-02-24T05:15:57.227Z,10.68
2023-02-24T05:18:25.809Z,10.65
2023-02-24T05:21:14.155Z,10.86
2023-02-24T05:23:46.887Z,10.83
2023-02-24T05:26:19.554Z,10.77
2023-02-24T05:28:49.519Z,10.72
2023-02-24T05:31:19.591Z,10.88
2023-02-24T05:33:50.103Z,10.83
2023-02-24T05:36:18.981Z,10.59
2023-02-24T05:38:48.034Z,10.46
2023-02-24T05:41:20.113Z,10.60
2023-02-24T05:43:54.895Z,10.52
2023-02-24T05:46:28.342Z,10.47
2023-02-24T05:48:57.085Z,10.40
2023-02-24T05:51:35.484Z,10.43
2023-02-24T05:54:05.064Z,10.52
2023-02-24T05:56:37.768Z,10.58
2023-02-24T05:59:06.789Z,10.69
2023-02-24T06:01:45.732Z,10.75
2023-02-24T06:04:27.920Z,10.81
2023-02-24T06:06:55.400Z,10.81
2023-02-24T06:09:23.388Z,11.05
2023-02-24T06:11:51.015Z,11.18
2023-02-24T06:14:18.561Z,11.32
2023-02-24T06:16:46.768Z,11.20
2023-02-24T06:19:15.724Z,11.02
2023-02-24T06:21:44.287Z,10.96
2023-02-24T06:24:18.613Z,10.87
2023-02-24T06:26:46.548Z,10.64
2023-02-24T06:29:15.682Z,10.54
2023-02-24T06:31:44.327Z,10.91
2023-02-24T06:34:13.297Z,11.00
2023-02-24T06:36:41.214Z,11.00
2023-02-24T06:39:09.374Z,11.07
2023-02-24T06:41:38.181Z,10.73
2023-02-24T06:44:06.302Z,10.50
2023-02-24T06:46:33.975Z,10.87
2023-02-24T06:49:01.658Z,10.99
2023-02-24T06:51:30.384Z,11.21
2023-02-24T06:53:59.526Z,11.00
2023-02-24T06:56:27.875Z,10.88
2023-02-24T06:58:57.058Z,10.90
2023-02-24T07:01:26.787Z,11.02
2023-02-24T07:04:02.201Z,10.95
2023-02-24T07:06:34.361Z,11.10
2023-02-24T07:09:07.186Z,10.91
2023-02-24T07:11:35.669Z,11.06
2023-02-24T07:14:05.935Z,11.01
2023-02-24T07:16:35.529Z,11.27
2023-02-24T07:19:11.315Z,10.95
2023-02-24T07:21:43.441Z,10.69
2023-02-24T07:24:20.216Z,11.11
2023-02-24T07:26:51.920Z,10.75
2023-02-24T07:29:19.729Z,11.32
2023-02-24T07:31:49.030Z,10.95
2023-02-24T07:34:26.581Z,10.95
2023-02-24T07:36:55.877Z,10.95
2023-02-24T07:39:24.900Z,11.19
2023-02-24T07:41:55.288Z,11.07
2023-02-24T07:44:26.461Z,11.21
2023-02-24T07:46:55.104Z,11.38
2023-02-24T07:49:37.529Z,11.98
2023-02-24T07:52:08.395Z,11.89
2023-02-24T07:54:40.913Z,11.65
2023-02-24T07:57:14.396Z,11.46
2023-02-24T07:59:45.764Z,11.67
2023-02-24T08:02:14.043Z,11.68
2023-02-24T08:04:50.250Z,10.91
2023-02-24T08:07:25.262Z,11.44
2023-02-24T08:10:14.757Z,11.57
2023-02-24T08:12:43.094Z,11.94
2023-02-24T08:15:17.496Z,11.73
2023-02-24T08:17:47.665Z,11.88
2023-02-24T08:20:15.537Z,12.15
2023-02-24T08:22:47.129Z,11.41
2023-02-24T08:25:19.140Z,11.78
2023-02-24T08:28:07.437Z,11.89
2023-02-24T08:30:40.084Z,11.79
2023-02-24T08:33:10.110Z,11.65
2023-02-24T08:35:41.837Z,11.86
2023-02-24T08:38:14.499Z,11.83
2023-02-24T08:40:51.387Z,12.37
2023-02-24T08:43:31.101Z,12.20
2023-02-24T08:46:03.925Z,12.37
2023-02-24T08:48:37.749Z,12.18
2023-02-24T08:51:25.115Z,11.97
2023-02-24T08:53:54.315Z,12.22
2023-02-24T08:56:27.431Z,12.86
2023-02-24T08:59:06.145Z,12.65
2023-02-24T09:01:37.294Z,12.42
2023-02-24T09:04:10.129Z,13.04
2023-02-24T09:06:40.495Z,13.20
2023-02-24T09:09:23.073Z,13.23
2023-02-24T09:11:59.612Z,13.17
2023-02-24T09:14:42.393Z,13.01
2023-02-24T09:17:15.070Z,13.62
2023-02-24T09:19:48.147Z,13.64
2023-02-24T09:22:32.788Z,13.83
2023-02-24T09:25:19.148Z,13.84
2023-02-24T09:28:09.888Z,13.87
2023-02-24T09:30:51.273Z,14.11
2023-02-24T09:33:38.922Z,14.08
2023-02-24T09:36:20.720Z,14.02
2023-02-24T09:39:02.123Z,13.47
2023-02-24T09:42:04.945Z,13.88
2023-02-24T09:44:33.746Z,14.33
2023-02-24T09:47:09.152Z,14.00
2023-02-24T09:49:59.129Z,13.48
2023-02-24T09:52:42.481Z,13.77
2023-02-24T09:55:45.241Z,14.33
2023-02-24T09:58:21.485Z,14.50
2023-02-24T10:01:21.866Z,14.88
2023-02-24T10:04:23.098Z,14.44
2023-02-24T10:06:55.385Z,13.94
2023-02-24T10:09:27.621Z,13.91
2023-02-24T10:12:04.589Z,14.34
2023-02-24T10:15:17.031Z,14.55
2023-02-24T10:17:55.494Z,14.91
2023-02-24T10:20:40.262Z,14.92
2023-02-24T10:23:33.391Z,15.10
2023-02-24T10:26:31.988Z,14.95
2023-02-24T10:29:02.792Z,14.44
2023-02-24T10:31:38.101Z,15.17
2023-02-24T10:34:10.052Z,14.88
2023-02-24T10:36:38.095Z,15.49
2023-02-24T10:39:20.526Z,15.49
2023-02-24T10:41:57.463Z,15.45
2023-02-24T10:44:36.261Z,15.59
2023-02-24T10:47:13.174Z,15.67
2023-02-24T10:49:57.157Z,16.11
2023-02-24T10:53:09.584Z,16.39
2023-02-24T10:55:42.857Z,16.50
2023-02-24T10:58:37.556Z,16.59
2023-02-24T11:01:13.662Z,17.09
2023-02-24T11:04:01.372Z,17.10
2023-02-24T11:06:40.458Z,17.57
2023-02-24T11:09:29.603Z,17.31
2023-02-24T11:12:31.864Z,17.52
2023-02-24T11:15:21.321Z,17.71
2023-02-24T11:17:59.429Z,17.26
2023-02-24T11:20:48.000Z,16.75
2023-02-24T11:23:20.386Z,17.33
2023-02-24T11:25:50.254Z,17.48
2023-02-24T11:28:40.991Z,17.17
2023-02-24T11:31:31.027Z,17.48
2023-02-24T11:34:01.092Z,17.53
2023-02-24T11:36:54.565Z,17.53
2023-02-24T11:39:25.257Z,17.03
2023-02-24T11:41:56.245Z,17.16
2023-02-24T11:44:34.778Z,17.47
2023-02-24T11:47:09.743Z,17.73
2023-02-24T11:49:50.690Z,17.78
2023-02-24T11:52:38.911Z,17.54
2023-02-24T11:55:15.410Z,18.42
2023-02-24T11:57:46.956Z,18.17
2023-02-24T12:00:25.679Z,18.07
2023-02-24T12:03:07.166Z,18.63
2023-02-24T12:05:39.184Z,18.35
2023-02-24T12:08:09.822Z,18.14
2023-02-24T12:10:50.527Z,18.22
2023-02-24T12:13:30.541Z,18.16
2023-02-24T12:16:04.625Z,17.56
2023-02-24T12:18:40.300Z,17.86
2023-02-24T12:21:13.435Z,18.27
2023-02-24T12:23:44.614Z,18.52
2023-02-24T12:26:32.449Z,18.07
2023-02-24T12:29:12.542Z,18.00
2023-02-24T12:32:07.942Z,18.11
2023-02-24T12:34:52.519Z,18.14
2023-02-24T12:37:27.584Z,18.20
2023-02-24T12:40:11.748Z,18.47
2023-02-24T12:42:48.273Z,18.06
2023-02-24T12:45:30.824Z,17.90
2023-02-24T12:48:33.512Z,18.05
2023-02-24T12:51:23.163Z,17.91
2023-02-24T12:54:00.147Z,17.64
2023-02-24T12:56:38.143Z,17.14
2023-02-24T12:59:06.618Z,16.90
2023-02-24T13:01:38.445Z,16.79
2023-02-24T13:04:32.050Z,16.59
2023-02-24T13:07:09.859Z,16.60
2023-02-24T13:10:07.988Z,16.80
2023-02-24T13:12:41.652Z,16.71
2023-02-24T13:15:24.230Z,17.15
2023-02-24T13:17:55.311Z,16.87
2023-02-24T13:20:32.431Z,16.70
2023-02-24T13:23:01.984Z,16.48
2023-02-24T13:25:35.476Z,16.57
2023-02-24T13:28:06.458Z,16.43
2023-02-24T13:30:40.676Z,16.35
2023-02-24T13:33:17.431Z,16.19
2023-02-24T13:35:46.946Z,16.39
2023-02-24T13:38:49.797Z,16.61
2023-02-24T13:41:21.055Z,16.80
2023-02-24T13:43:59.155Z,16.52
2023-02-24T13:47:00.616Z,16.70
2023-02-24T13:49:37.676Z,16.77
2023-02-24T13:52:32.667Z,17.05
2023-02-24T13:55:24.659Z,17.16
2023-02-24T13:57:59.861Z,16.78
2023-02-24T14:00:35.187Z,17.30
2023-02-24T14:03:10.292Z,17.07
2023-02-24T14:05:40.686Z,16.97
2023-02-24T14:08:08.522Z,16.70
2023-02-24T14:10:37.773Z,16.94
2023-02-24T14:13:16.259Z,16.98
2023-02-24T14:15:45.334Z,16.84
2023-02-24T14:18:22.196Z,16.75
2023-02-24T14:20:52.313Z,16.41
2023-02-24T14:23:25.724Z,16.56
2023-02-24T14:26:00.917Z,16.62
2023-02-24T14:28:32.100Z,16.94
2023-02-24T14:31:15.779Z,16.83
2023-02-24T14:33:45.116Z,16.68
2023-02-24T14:36:24.376Z,16.90
2023-02-24T14:39:09.347Z,16.19
2023-02-24T14:41:37.260Z,16.60
2023-02-24T14:44:13.475Z,16.78
2023-02-24T14:46:52.950Z,17.17
2023-02-24T14:49:29.844Z,17.19
2023-02-24T14:52:23.757Z,17.35
2023-02-24T14:55:00.932Z,17.43
2023-02-24T14:57:34.884Z,17.28
2023-02-24T15:00:11.202Z,17.34
2023-02-24T15:02:44.468Z,17.27
2023-02-24T15:05:12.325Z,17.25
2023-02-24T15:07:44.448Z,17.29
2023-02-24T15:10:22.532Z,16.92
2023-02-24T15:13:12.794Z,16.76
2023-02-24T15:15:42.628Z,16.95
2023-02-24T15:18:23.825Z,17.27
2023-02-24T15:21:06.401Z,17.01
2023-02-24T15:23:37.611Z,17.18
2023-02-24T15:26:11.090Z,17.13
2023-02-24T15:28:43.596Z,16.82
2023-02-24T15:31:17.828Z,17.10
2023-02-24T15:33:53.664Z,17.28
2023-02-24T15:36:24.843Z,17.24
2023-02-24T15:38:55.347Z,17.33
2023-02-24T15:41:23.121Z,17.09
2023-02-24T15:43:53.227Z,17.05
2023-02-24T15:46:35.758Z,16.98
2023-02-24T15:49:05.031Z,17.09
2023-02-24T15:51:32.781Z,16.84
2023-02-24T15:54:01.812Z,16.58
2023-02-24T15:56:32.298Z,16.35
2023-02-24T15:59:02.986Z,15.65
2023-02-24T16:01:31.142Z,16.02
2023-02-24T16:04:00.467Z,16.58
2023-02-24T16:06:28.594Z,16.43
2023-02-24T16:08:57.216Z,16.26
2023-02-24T16:11:27.467Z,16.09
2023-02-24T16:13:57.634Z,16.46
2023-02-24T16:16:26.790Z,16.42
2023-02-24T16:18:54.564Z,16.10
2023-02-24T16:21:22.111Z,16.51
2023-02-24T16:23:50.548Z,16.32
2023-02-24T16:26:23.552Z,16.24
2023-02-24T16:28:56.922Z,16.32
2023-02-24T16:31:26.338Z,16.41
2023-02-24T16:33:55.965Z,16.25
2023-02-24T16:36:25.800Z,16.26
2023-02-24T16:38:54.304Z,16.43
2023-02-24T16:41:21.903Z,16.49
2023-02-24T16:43:50.099Z,16.28
2023-02-24T16:46:22.869Z,15.82
2023-02-24T16:48:53.505Z,16.09
2023-02-24T16:51:22.049Z,16.20
2023-02-24T16:53:49.645Z,16.25
2023-02-24T16:56:18.104Z,16.49
2023-02-24T17:01:20.126Z,15.73
2023-02-24T17:06:29.280Z,16.62
2023-02-24T17:08:57.267Z,16.62
2023-02-24T17:11:26.484Z,16.08
2023-02-24T17:16:22.094Z,15.90
2023-02-24T17:21:24.432Z,16.05
2023-02-24T17:26:31.782Z,16.18
2023-02-24T17:31:31.785Z,15.46
2023-02-24T17:36:39.132Z,16.00
2023-02-24T17:39:06.936Z,16.00
2023-02-24T17:41:34.597Z,15.42
2023-02-24T17:46:53.786Z,15.35
2023-02-24T17:49:21.376Z,14.80
2023-02-24T17:51:49.395Z,15.12
2023-02-24T17:54:16.972Z,15.33
2023-02-24T17:56:44.526Z,15.38
2023-02-24T18:01:39.683Z,15.09
2023-02-24T18:06:42.771Z,14.75
2023-02-24T18:11:45.918Z,14.97
2023-02-24T18:14:14.433Z,15.00
2023-02-24T18:16:42.038Z,15.08
2023-02-24T18:19:09.410Z,14.37
2023-02-24T18:21:37.222Z,14.51
2023-02-24T18:24:05.306Z,14.27
2023-02-24T18:26:32.826Z,14.32
2023-02-24T18:29:00.776Z,14.97
2023-02-24T18:31:28.887Z,14.53
2023-02-24T18:33:57.239Z,14.60
2023-02-24T18:36:25.649Z,14.45
2023-02-24T18:38:53.248Z,14.62
2023-02-24T18:41:22.116Z,14.56
2023-02-24T18:43:54.252Z,14.11
2023-02-24T18:46:22.731Z,14.11
2023-02-24T18:48:50.902Z,14.29
2023-02-24T18:51:21.673Z,14.22
2023-02-24T18:53:51.489Z,13.86
2023-02-24T18:56:23.615Z,13.93
2023-02-24T18:58:55.394Z,13.99
2023-02-24T19:01:30.698Z,14.20
2023-02-24T19:03:58.827Z,13.69
2023-02-24T19:06:28.685Z,13.83
2023-02-24T19:09:06.677Z,13.78
2023-02-24T19:11:34.629Z,13.84
2023-02-24T19:14:03.071Z,13.88
2023-02-24T19:16:30.943Z,13.94
2023-02-24T19:19:00.133Z,14.44
2023-02-24T19:21:29.569Z,14.26
2023-02-24T19:24:03.660Z,14.21
2023-02-24T19:26:31.607Z,14.35
2023-02-24T19:29:03.375Z,14.15
2023-02-24T19:31:33.318Z,14.11
2023-02-24T19:34:04.031Z,13.78
2023-02-24T19:36:33.180Z,13.46
2023-02-24T19:39:01.687Z,13.45
2023-02-24T19:41:29.807Z,13.51
2023-02-24T19:43:57.227Z,13.48
2023-02-24T19:46:25.487Z,13.24
2023-02-24T19:48:53.557Z,13.32
2023-02-24T19:51:23.661Z,13.32
2023-02-24T19:53:56.600Z,13.63
2023-02-24T19:56:32.354Z,13.81
2023-02-24T19:59:01.170Z,13.84
2023-02-24T20:01:29.696Z,13.79
2023-02-24T20:03:59.764Z,13.74
2023-02-24T20:06:31.697Z,13.43
2023-02-24T20:09:00.198Z,13.43
2023-02-24T20:11:30.417Z,13.12
2023-02-24T20:13:58.159Z,13.02
2023-02-24T20:16:27.314Z,13.06
2023-02-24T20:18:55.431Z,13.45
2023-02-24T20:21:23.394Z,13.24
2023-02-24T20:23:51.475Z,13.32
2023-02-24T20:26:19.642Z,12.65
2023-02-24T20:28:48.072Z,12.81
2023-02-24T20:31:19.659Z,12.84
2023-02-24T20:33:48.600Z,12.80
2023-02-24T20:36:23.894Z,12.30
2023-02-24T20:38:52.446Z,12.38
2023-02-24T20:41:21.751Z,12.62
2023-02-24T20:43:49.492Z,12.36
2023-02-24T20:46:25.228Z,12.83
2023-02-24T20:48:56.789Z,12.68
2023-02-24T20:51:25.166Z,12.73
2023-02-24T20:53:57.696Z,12.76
2023-02-24T20:56:27.909Z,13.01
2023-02-24T20:59:07.687Z,12.83
2023-02-24T21:01:35.882Z,12.33
2023-02-24T21:04:03.785Z,12.32
2023-02-24T21:06:31.591Z,12.24
2023-02-24T21:08:59.147Z,12.34
2023-02-24T21:11:27.316Z,12.48
2023-02-24T21:13:55.010Z,12.64
2023-02-24T21:16:23.168Z,12.95
2023-02-24T21:18:53.315Z,12.72
2023-02-24T21:21:21.258Z,12.33
2023-02-24T21:23:48.990Z,12.33
2023-02-24T21:26:17.874Z,12.44
2023-02-24T21:28:46.319Z,12.96
2023-02-24T21:31:17.173Z,12.75
2023-02-24T21:33:45.096Z,12.75
2023-02-24T21:36:14.996Z,13.19
2023-02-24T21:38:42.717Z,12.57
2023-02-24T21:41:14.733Z,12.63
2023-02-24T21:43:42.665Z,12.66
2023-02-24T21:46:11.406Z,12.44
2023-02-24T21:48:40.629Z,12.54
2023-02-24T21:51:10.054Z,13.03
2023-02-24T21:53:39.413Z,12.48
2023-02-24T21:56:11.117Z,12.27
2023-02-24T21:58:40.376Z,12.61
2023-02-24T22:01:20.121Z,12.91
2023-02-24T22:03:48.284Z,12.89
2023-02-24T22:06:17.756Z,12.52
2023-02-24T22:08:45.741Z,12.43
2023-02-24T22:11:15.756Z,12.63
2023-02-24T22:13:44.341Z,12.51
2023-02-24T22:16:15.371Z,12.51
2023-02-24T22:18:44.295Z,12.55
2023-02-24T22:21:17.181Z,12.42
2023-02-24T22:23:46.112Z,12.40
2023-02-24T22:26:14.546Z,12.41
2023-02-24T22:28:43.865Z,12.53
2023-02-24T22:31:12.868Z,12.45
2023-02-24T22:33:41.781Z,12.58
2023-02-24T22:36:25.261Z,12.62
2023-02-24T22:38:54.878Z,12.25
2023-02-24T22:41:24.618Z,12.54
2023-02-24T22:43:53.970Z,12.22
2023-02-24T22:46:25.226Z,12.18
2023-02-24T22:48:52.900Z,11.54
2023-02-24T22:51:20.743Z,12.25
2023-02-24T22:53:50.095Z,11.75
2023-02-24T22:56:20.457Z,11.69
2023-02-24T22:58:48.794Z,12.19
2023-02-24T23:01:22.406Z,11.93
2023-02-24T23:03:50.757Z,11.96
2023-02-24T23:06:22.076Z,11.53
2023-02-24T23:08:50.740Z,11.79
2023-02-24T23:11:21.063Z,11.78
2023-02-24T23:13:50.267Z,11.58
2023-02-24T23:16:21.899Z,11.78
2023-02-24T23:18:56.189Z,11.36
2023-02-24T23:21:33.802Z,11.26
2023-02-24T23:24:02.195Z,11.28
2023-02-24T23:26:39.344Z,11.48
2023-02-24T23:29:07.348Z,11.64
2023-02-24T23:31:35.789Z,11.47
2023-02-24T23:34:06.998Z,11.78
2023-02-24T23:36:36.905Z,11.82
2023-02-24T23:39:06.602Z,11.88
2023-02-24T23:41:35.858Z,11.72
2023-02-24T23:44:04.097Z,11.27
2023-02-24T23:46:35.951Z,11.30
2023-02-24T23:49:04.803Z,11.66
2023-02-24T23:51:47.133Z,11.60
2023-02-24T23:54:16.985Z,11.21
2023-02-24T23:56:44.861Z,11.30
2023-02-24T23:59:12.427Z,11.40
